sensor_id;sensor_type;location;lat;lon;timestamp;P1;durP1;ratioP1;P2;durP2;ratioP2
66870;SDS011;53780;44.998;9.926;2023-04-25T00:02:58;3.60;;;0.90;;
66870;SDS011;53780;44.998;9.926;2023-04-25T00:06:02;3.08;;;0.90;;
66870;SDS011;53780;44.998;9.926;2023-04-25T00:09:07;3.30;;;0.80;;
66870;SDS011;53780;44.998;9.926;2023-04-25T00:12:12;3.92;;;0.90;;
66870;SDS011;53780;44.998;9.926;2023-04-25T00:15:16;3.35;;;0.90;;
66870;SDS011;53780;44.998;9.926;2023-04-25T00:18:21;4.30;;;0.88;;
66870;SDS011;53780;44.998;9.926;2023-04-25T00:21:25;3.90;;;1.00;;
66870;SDS011;53780;44.998;9.926;2023-04-25T00:24:29;4.87;;;0.83;;
66870;SDS011;53780;44.998;9.926;2023-04-25T00:27:33;4.20;;;0.90;;
66870;SDS011;53780;44.998;9.926;2023-04-25T00:30:37;2.92;;;0.70;;
66870;SDS011;53780;44.998;9.926;2023-04-25T00:33:42;4.45;;;0.80;;
66870;SDS011;53780;44.998;9.926;2023-04-25T00:36:46;11.07;;;1.02;;
66870;SDS011;53780;44.998;9.926;2023-04-25T00:39:50;3.87;;;0.80;;
66870;SDS011;53780;44.998;9.926;2023-04-25T00:42:54;5.03;;;0.90;;
66870;SDS011;53780;44.998;9.926;2023-04-25T00:45:59;4.30;;;0.90;;
66870;SDS011;53780;44.998;9.926;2023-04-25T00:49:04;3.10;;;0.63;;
66870;SDS011;53780;44.998;9.926;2023-04-25T00:52:08;3.45;;;1.02;;
66870;SDS011;53780;44.998;9.926;2023-04-25T00:55:12;3.63;;;0.93;;
66870;SDS011;53780;44.998;9.926;2023-04-25T00:58:20;5.18;;;0.80;;
66870;SDS011;53780;44.998;9.926;2023-04-25T01:01:25;5.28;;;1.15;;
66870;SDS011;53780;44.998;9.926;2023-04-25T01:04:29;3.67;;;1.05;;
66870;SDS011;53780;44.998;9.926;2023-04-25T01:07:32;4.82;;;0.90;;
66870;SDS011;53780;44.998;9.926;2023-04-25T01:10:37;4.37;;;0.90;;
66870;SDS011;53780;44.998;9.926;2023-04-25T01:13:41;3.70;;;0.95;;
66870;SDS011;53780;44.998;9.926;2023-04-25T01:16:45;3.05;;;0.93;;
66870;SDS011;53780;44.998;9.926;2023-04-25T01:19:49;3.65;;;1.00;;
66870;SDS011;53780;44.998;9.926;2023-04-25T01:22:54;4.05;;;0.90;;
66870;SDS011;53780;44.998;9.926;2023-04-25T01:25:59;3.07;;;0.90;;
66870;SDS011;53780;44.998;9.926;2023-04-25T01:29:04;3.80;;;1.10;;
66870;SDS011;53780;44.998;9.926;2023-04-25T01:32:08;3.97;;;1.30;;
66870;SDS011;53780;44.998;9.926;2023-04-25T01:35:13;5.15;;;1.42;;
66870;SDS011;53780;44.998;9.926;2023-04-25T01:38:17;5.45;;;1.17;;
66870;SDS011;53780;44.998;9.926;2023-04-25T01:41:21;3.80;;;1.17;;
66870;SDS011;53780;44.998;9.926;2023-04-25T01:44:27;3.75;;;1.15;;
66870;SDS011;53780;44.998;9.926;2023-04-25T01:47:31;3.78;;;1.20;;
66870;SDS011;53780;44.998;9.926;2023-04-25T01:50:35;4.45;;;1.20;;
66870;SDS011;53780;44.998;9.926;2023-04-25T01:53:41;3.88;;;1.42;;
66870;SDS011;53780;44.998;9.926;2023-04-25T01:56:50;3.87;;;1.10;;
66870;SDS011;53780;44.998;9.926;2023-04-25T01:59:59;3.97;;;1.30;;
66870;SDS011;53780;44.998;9.926;2023-04-25T02:03:18;4.45;;;1.30;;
66870;SDS011;53780;44.998;9.926;2023-04-25T02:06:21;4.18;;;1.50;;
66870;SDS011;53780;44.998;9.926;2023-04-25T02:09:28;3.97;;;1.50;;
66870;SDS011;53780;44.998;9.926;2023-04-25T02:12:34;4.67;;;1.30;;
66870;SDS011;53780;44.998;9.926;2023-04-25T02:15:52;4.90;;;1.45;;
66870;SDS011;53780;44.998;9.926;2023-04-25T02:18:57;4.25;;;1.50;;
66870;SDS011;53780;44.998;9.926;2023-04-25T02:22:00;7.72;;;1.65;;
66870;SDS011;53780;44.998;9.926;2023-04-25T02:25:04;3.72;;;1.20;;
66870;SDS011;53780;44.998;9.926;2023-04-25T02:28:09;5.83;;;1.47;;
66870;SDS011;53780;44.998;9.926;2023-04-25T02:31:14;3.58;;;1.17;;
66870;SDS011;53780;44.998;9.926;2023-04-25T02:34:17;4.00;;;1.55;;
66870;SDS011;53780;44.998;9.926;2023-04-25T02:37:21;6.10;;;1.70;;
66870;SDS011;53780;44.998;9.926;2023-04-25T02:40:25;4.55;;;1.50;;
66870;SDS011;53780;44.998;9.926;2023-04-25T02:43:31;7.63;;;1.60;;
66870;SDS011;53780;44.998;9.926;2023-04-25T02:46:35;3.92;;;1.60;;
66870;SDS011;53780;44.998;9.926;2023-04-25T02:49:38;5.53;;;1.80;;
66870;SDS011;53780;44.998;9.926;2023-04-25T02:52:42;7.43;;;1.90;;
66870;SDS011;53780;44.998;9.926;2023-04-25T02:55:51;8.20;;;1.83;;
66870;SDS011;53780;44.998;9.926;2023-04-25T02:58:56;6.20;;;2.00;;
66870;SDS011;53780;44.998;9.926;2023-04-25T03:02:00;4.65;;;1.80;;
66870;SDS011;53780;44.998;9.926;2023-04-25T03:05:04;7.22;;;2.15;;
66870;SDS011;53780;44.998;9.926;2023-04-25T03:08:10;5.88;;;2.15;;
66870;SDS011;53780;44.998;9.926;2023-04-25T03:11:15;9.60;;;2.30;;
66870;SDS011;53780;44.998;9.926;2023-04-25T03:14:19;4.77;;;1.90;;
66870;SDS011;53780;44.998;9.926;2023-04-25T03:17:23;4.43;;;1.88;;
66870;SDS011;53780;44.998;9.926;2023-04-25T03:20:27;6.03;;;2.03;;
66870;SDS011;53780;44.998;9.926;2023-04-25T03:23:30;6.38;;;2.00;;
66870;SDS011;53780;44.998;9.926;2023-04-25T03:26:34;5.65;;;1.88;;
66870;SDS011;53780;44.998;9.926;2023-04-25T03:29:38;5.57;;;2.00;;
66870;SDS011;53780;44.998;9.926;2023-04-25T03:32:43;5.78;;;2.10;;
66870;SDS011;53780;44.998;9.926;2023-04-25T03:35:47;4.88;;;1.85;;
66870;SDS011;53780;44.998;9.926;2023-04-25T03:38:50;4.88;;;1.85;;
66870;SDS011;53780;44.998;9.926;2023-04-25T03:41:55;5.07;;;2.08;;
66870;SDS011;53780;44.998;9.926;2023-04-25T03:44:59;6.53;;;2.00;;
66870;SDS011;53780;44.998;9.926;2023-04-25T03:48:02;4.60;;;1.88;;
66870;SDS011;53780;44.998;9.926;2023-04-25T03:51:07;5.85;;;2.15;;
66870;SDS011;53780;44.998;9.926;2023-04-25T03:54:14;5.70;;;2.10;;
66870;SDS011;53780;44.998;9.926;2023-04-25T03:57:36;7.38;;;2.17;;
66870;SDS011;53780;44.998;9.926;2023-04-25T04:00:40;5.47;;;2.17;;
66870;SDS011;53780;44.998;9.926;2023-04-25T04:03:44;7.97;;;1.90;;
66870;SDS011;53780;44.998;9.926;2023-04-25T04:06:48;5.82;;;2.22;;
66870;SDS011;53780;44.998;9.926;2023-04-25T04:10:00;6.25;;;1.90;;
66870;SDS011;53780;44.998;9.926;2023-04-25T04:13:10;6.55;;;2.08;;
66870;SDS011;53780;44.998;9.926;2023-04-25T04:16:13;5.33;;;1.73;;
66870;SDS011;53780;44.998;9.926;2023-04-25T04:19:18;5.18;;;1.90;;
66870;SDS011;53780;44.998;9.926;2023-04-25T04:22:32;5.43;;;1.92;;
66870;SDS011;53780;44.998;9.926;2023-04-25T04:25:42;5.35;;;2.10;;
66870;SDS011;53780;44.998;9.926;2023-04-25T04:29:04;4.60;;;2.08;;
66870;SDS011;53780;44.998;9.926;2023-04-25T04:32:23;5.63;;;2.03;;
66870;SDS011;53780;44.998;9.926;2023-04-25T04:35:29;5.55;;;2.00;;
66870;SDS011;53780;44.998;9.926;2023-04-25T04:38:33;7.78;;;2.10;;
66870;SDS011;53780;44.998;9.926;2023-04-25T04:41:40;5.50;;;1.95;;
66870;SDS011;53780;44.998;9.926;2023-04-25T04:44:50;5.43;;;2.13;;
66870;SDS011;53780;44.998;9.926;2023-04-25T04:48:05;4.97;;;1.80;;
66870;SDS011;53780;44.998;9.926;2023-04-25T04:51:22;4.88;;;2.00;;
66870;SDS011;53780;44.998;9.926;2023-04-25T04:54:44;5.68;;;2.20;;
66870;SDS011;53780;44.998;9.926;2023-04-25T04:57:57;6.45;;;2.35;;
66870;SDS011;53780;44.998;9.926;2023-04-25T05:01:17;6.85;;;2.35;;
66870;SDS011;53780;44.998;9.926;2023-04-25T05:04:34;4.70;;;1.97;;
66870;SDS011;53780;44.998;9.926;2023-04-25T05:07:52;6.85;;;2.20;;
66870;SDS011;53780;44.998;9.926;2023-04-25T05:11:06;5.75;;;2.30;;
66870;SDS011;53780;44.998;9.926;2023-04-25T05:14:30;7.28;;;2.33;;
66870;SDS011;53780;44.998;9.926;2023-04-25T05:17:50;7.00;;;1.80;;
66870;SDS011;53780;44.998;9.926;2023-04-25T05:21:18;6.73;;;2.13;;
66870;SDS011;53780;44.998;9.926;2023-04-25T05:24:40;9.73;;;2.50;;
66870;SDS011;53780;44.998;9.926;2023-04-25T05:28:02;7.05;;;2.50;;
66870;SDS011;53780;44.998;9.926;2023-04-25T05:31:29;6.43;;;2.35;;
66870;SDS011;53780;44.998;9.926;2023-04-25T05:34:39;7.40;;;2.70;;
66870;SDS011;53780;44.998;9.926;2023-04-25T05:37:49;6.40;;;2.70;;
66870;SDS011;53780;44.998;9.926;2023-04-25T05:40:54;5.93;;;2.50;;
66870;SDS011;53780;44.998;9.926;2023-04-25T05:44:18;6.07;;;2.50;;
66870;SDS011;53780;44.998;9.926;2023-04-25T05:47:29;6.60;;;2.70;;
66870;SDS011;53780;44.998;9.926;2023-04-25T05:50:43;5.70;;;2.63;;
66870;SDS011;53780;44.998;9.926;2023-04-25T05:54:14;6.67;;;2.40;;
66870;SDS011;53780;44.998;9.926;2023-04-25T05:57:19;6.97;;;2.50;;
66870;SDS011;53780;44.998;9.926;2023-04-25T06:00:24;6.30;;;2.58;;
66870;SDS011;53780;44.998;9.926;2023-04-25T06:03:28;5.63;;;2.30;;
66870;SDS011;53780;44.998;9.926;2023-04-25T06:06:35;6.78;;;2.42;;
66870;SDS011;53780;44.998;9.926;2023-04-25T06:09:38;5.50;;;2.57;;
66870;SDS011;53780;44.998;9.926;2023-04-25T06:12:42;7.20;;;2.30;;
66870;SDS011;53780;44.998;9.926;2023-04-25T06:15:47;5.13;;;2.50;;
66870;SDS011;53780;44.998;9.926;2023-04-25T06:18:51;8.30;;;2.92;;
66870;SDS011;53780;44.998;9.926;2023-04-25T06:21:55;6.65;;;2.95;;
66870;SDS011;53780;44.998;9.926;2023-04-25T06:24:59;6.50;;;2.50;;
66870;SDS011;53780;44.998;9.926;2023-04-25T06:28:04;5.38;;;2.65;;
66870;SDS011;53780;44.998;9.926;2023-04-25T06:31:08;6.57;;;2.92;;
66870;SDS011;53780;44.998;9.926;2023-04-25T06:34:12;6.10;;;2.70;;
66870;SDS011;53780;44.998;9.926;2023-04-25T06:37:18;5.97;;;2.90;;
66870;SDS011;53780;44.998;9.926;2023-04-25T06:40:22;6.27;;;2.80;;
66870;SDS011;53780;44.998;9.926;2023-04-25T06:43:25;5.18;;;2.70;;
66870;SDS011;53780;44.998;9.926;2023-04-25T06:46:33;6.10;;;2.50;;
66870;SDS011;53780;44.998;9.926;2023-04-25T06:49:38;4.95;;;2.53;;
66870;SDS011;53780;44.998;9.926;2023-04-25T06:52:42;6.30;;;3.10;;
66870;SDS011;53780;44.998;9.926;2023-04-25T06:55:46;5.90;;;2.50;;
66870;SDS011;53780;44.998;9.926;2023-04-25T06:58:56;6.22;;;2.30;;
66870;SDS011;53780;44.998;9.926;2023-04-25T07:02:18;4.03;;;2.10;;
66870;SDS011;53780;44.998;9.926;2023-04-25T07:05:22;5.15;;;2.40;;
66870;SDS011;53780;44.998;9.926;2023-04-25T07:08:26;6.07;;;2.47;;
66870;SDS011;53780;44.998;9.926;2023-04-25T07:11:30;4.10;;;2.10;;
66870;SDS011;53780;44.998;9.926;2023-04-25T07:14:34;4.05;;;1.95;;
66870;SDS011;53780;44.998;9.926;2023-04-25T07:17:38;4.22;;;2.20;;
66870;SDS011;53780;44.998;9.926;2023-04-25T07:20:42;5.10;;;2.10;;
66870;SDS011;53780;44.998;9.926;2023-04-25T07:23:46;5.30;;;2.40;;
66870;SDS011;53780;44.998;9.926;2023-04-25T07:26:53;3.57;;;1.50;;
66870;SDS011;53780;44.998;9.926;2023-04-25T07:30:00;4.07;;;1.60;;
66870;SDS011;53780;44.998;9.926;2023-04-25T07:33:03;4.40;;;1.60;;
66870;SDS011;53780;44.998;9.926;2023-04-25T07:36:07;4.22;;;1.55;;
66870;SDS011;53780;44.998;9.926;2023-04-25T07:39:12;5.28;;;2.35;;
66870;SDS011;53780;44.998;9.926;2023-04-25T07:42:16;4.90;;;2.00;;
66870;SDS011;53780;44.998;9.926;2023-04-25T07:45:21;4.65;;;1.80;;
66870;SDS011;53780;44.998;9.926;2023-04-25T07:48:26;4.68;;;1.92;;
66870;SDS011;53780;44.998;9.926;2023-04-25T07:51:30;4.15;;;1.67;;
66870;SDS011;53780;44.998;9.926;2023-04-25T07:54:39;5.07;;;1.70;;
66870;SDS011;53780;44.998;9.926;2023-04-25T07:57:51;5.23;;;1.60;;
66870;SDS011;53780;44.998;9.926;2023-04-25T08:00:55;3.65;;;1.60;;
66870;SDS011;53780;44.998;9.926;2023-04-25T08:04:19;3.75;;;1.60;;
66870;SDS011;53780;44.998;9.926;2023-04-25T08:07:30;3.85;;;1.40;;
66870;SDS011;53780;44.998;9.926;2023-04-25T08:10:39;4.35;;;1.50;;
66870;SDS011;53780;44.998;9.926;2023-04-25T08:13:44;5.50;;;1.70;;
66870;SDS011;53780;44.998;9.926;2023-04-25T08:16:49;4.95;;;1.45;;
66870;SDS011;53780;44.998;9.926;2023-04-25T08:19:53;4.35;;;1.50;;
66870;SDS011;53780;44.998;9.926;2023-04-25T08:23:04;4.75;;;1.55;;
66870;SDS011;53780;44.998;9.926;2023-04-25T08:26:20;3.40;;;1.60;;
66870;SDS011;53780;44.998;9.926;2023-04-25T08:29:26;3.63;;;1.20;;
66870;SDS011;53780;44.998;9.926;2023-04-25T08:32:31;4.27;;;1.20;;
66870;SDS011;53780;44.998;9.926;2023-04-25T08:35:57;2.60;;;0.93;;
66870;SDS011;53780;44.998;9.926;2023-04-25T08:39:02;2.95;;;1.00;;
66870;SDS011;53780;44.998;9.926;2023-04-25T08:42:07;3.75;;;1.45;;
66870;SDS011;53780;44.998;9.926;2023-04-25T08:45:15;4.18;;;1.50;;
66870;SDS011;53780;44.998;9.926;2023-04-25T08:48:20;4.43;;;1.50;;
66870;SDS011;53780;44.998;9.926;2023-04-25T08:51:25;5.32;;;1.75;;
66870;SDS011;53780;44.998;9.926;2023-04-25T08:54:31;2.92;;;1.30;;
66870;SDS011;53780;44.998;9.926;2023-04-25T08:57:37;3.20;;;1.40;;
66870;SDS011;53780;44.998;9.926;2023-04-25T09:00:42;2.92;;;1.23;;
66870;SDS011;53780;44.998;9.926;2023-04-25T09:03:47;4.40;;;1.40;;
66870;SDS011;53780;44.998;9.926;2023-04-25T09:06:51;2.80;;;1.20;;
66870;SDS011;53780;44.998;9.926;2023-04-25T09:09:55;3.13;;;0.60;;
66870;SDS011;53780;44.998;9.926;2023-04-25T09:13:03;3.15;;;0.93;;
66870;SDS011;53780;44.998;9.926;2023-04-25T09:16:34;2.63;;;0.90;;
66870;SDS011;53780;44.998;9.926;2023-04-25T09:20:08;2.10;;;0.80;;
66870;SDS011;53780;44.998;9.926;2023-04-25T09:23:14;1.73;;;0.50;;
66870;SDS011;53780;44.998;9.926;2023-04-25T09:26:19;2.67;;;0.68;;
66870;SDS011;53780;44.998;9.926;2023-04-25T09:29:31;1.75;;;0.38;;
66870;SDS011;53780;44.998;9.926;2023-04-25T09:32:37;1.90;;;0.70;;
66870;SDS011;53780;44.998;9.926;2023-04-25T09:35:44;4.57;;;0.30;;
66870;SDS011;53780;44.998;9.926;2023-04-25T09:39:20;3.10;;;0.50;;
66870;SDS011;53780;44.998;9.926;2023-04-25T09:42:32;2.30;;;0.52;;
66870;SDS011;53780;44.998;9.926;2023-04-25T09:45:41;2.67;;;0.80;;
66870;SDS011;53780;44.998;9.926;2023-04-25T09:48:49;4.80;;;1.70;;
66870;SDS011;53780;44.998;9.926;2023-04-25T09:51:59;3.15;;;1.70;;
66870;SDS011;53780;44.998;9.926;2023-04-25T09:55:16;3.92;;;1.20;;
66870;SDS011;53780;44.998;9.926;2023-04-25T09:58:22;2.10;;;0.70;;
66870;SDS011;53780;44.998;9.926;2023-04-25T10:01:28;2.25;;;0.70;;
66870;SDS011;53780;44.998;9.926;2023-04-25T10:04:43;3.47;;;1.13;;
66870;SDS011;53780;44.998;9.926;2023-04-25T10:07:58;3.38;;;1.00;;
66870;SDS011;53780;44.998;9.926;2023-04-25T10:11:06;3.13;;;1.00;;
66870;SDS011;53780;44.998;9.926;2023-04-25T10:14:12;4.17;;;1.23;;
66870;SDS011;53780;44.998;9.926;2023-04-25T10:17:16;3.20;;;0.90;;
66870;SDS011;53780;44.998;9.926;2023-04-25T10:20:22;4.57;;;0.90;;
66870;SDS011;53780;44.998;9.926;2023-04-25T10:23:26;2.50;;;1.00;;
66870;SDS011;53780;44.998;9.926;2023-04-25T10:26:32;2.83;;;1.00;;
66870;SDS011;53780;44.998;9.926;2023-04-25T10:29:36;2.67;;;0.90;;
66870;SDS011;53780;44.998;9.926;2023-04-25T10:32:44;2.47;;;0.90;;
66870;SDS011;53780;44.998;9.926;2023-04-25T10:35:53;6.63;;;1.00;;
66870;SDS011;53780;44.998;9.926;2023-04-25T10:39:04;3.10;;;1.00;;
66870;SDS011;53780;44.998;9.926;2023-04-25T10:42:10;4.28;;;1.08;;
66870;SDS011;53780;44.998;9.926;2023-04-25T10:45:15;3.08;;;1.00;;
66870;SDS011;53780;44.998;9.926;2023-04-25T10:48:25;3.55;;;0.85;;
66870;SDS011;53780;44.998;9.926;2023-04-25T10:51:34;5.50;;;0.87;;
66870;SDS011;53780;44.998;9.926;2023-04-25T10:57:49;3.55;;;1.10;;
66870;SDS011;53780;44.998;9.926;2023-04-25T11:00:55;7.60;;;1.00;;
66870;SDS011;53780;44.998;9.926;2023-04-25T11:03:58;3.85;;;0.90;;
66870;SDS011;53780;44.998;9.926;2023-04-25T11:10:09;3.00;;;0.75;;
66870;SDS011;53780;44.998;9.926;2023-04-25T11:13:12;4.40;;;1.30;;
66870;SDS011;53780;44.998;9.926;2023-04-25T11:16:16;5.97;;;1.00;;
66870;SDS011;53780;44.998;9.926;2023-04-25T11:19:21;3.77;;;1.10;;
66870;SDS011;53780;44.998;9.926;2023-04-25T11:22:26;3.92;;;1.15;;
66870;SDS011;53780;44.998;9.926;2023-04-25T11:25:30;4.20;;;1.20;;
66870;SDS011;53780;44.998;9.926;2023-04-25T11:28:34;3.00;;;1.00;;
66870;SDS011;53780;44.998;9.926;2023-04-25T11:31:39;3.65;;;1.30;;
66870;SDS011;53780;44.998;9.926;2023-04-25T11:34:48;5.33;;;1.10;;
66870;SDS011;53780;44.998;9.926;2023-04-25T11:37:52;4.88;;;1.20;;
66870;SDS011;53780;44.998;9.926;2023-04-25T11:40:56;3.10;;;1.10;;
66870;SDS011;53780;44.998;9.926;2023-04-25T11:44:00;5.00;;;1.10;;
66870;SDS011;53780;44.998;9.926;2023-04-25T11:47:04;3.58;;;1.30;;
66870;SDS011;53780;44.998;9.926;2023-04-25T11:50:08;2.70;;;1.00;;
66870;SDS011;53780;44.998;9.926;2023-04-25T11:53:12;4.05;;;1.10;;
66870;SDS011;53780;44.998;9.926;2023-04-25T11:56:16;5.22;;;1.20;;
66870;SDS011;53780;44.998;9.926;2023-04-25T11:59:23;3.88;;;1.10;;
66870;SDS011;53780;44.998;9.926;2023-04-25T12:02:28;4.00;;;1.40;;
66870;SDS011;53780;44.998;9.926;2023-04-25T12:05:32;3.30;;;1.03;;
66870;SDS011;53780;44.998;9.926;2023-04-25T12:08:37;4.47;;;1.40;;
66870;SDS011;53780;44.998;9.926;2023-04-25T12:11:42;4.88;;;1.75;;
66870;SDS011;53780;44.998;9.926;2023-04-25T12:14:47;4.70;;;1.40;;
66870;SDS011;53780;44.998;9.926;2023-04-25T12:17:53;4.70;;;1.40;;
66870;SDS011;53780;44.998;9.926;2023-04-25T12:20:58;5.67;;;1.47;;
66870;SDS011;53780;44.998;9.926;2023-04-25T12:27:30;4.32;;;1.45;;
66870;SDS011;53780;44.998;9.926;2023-04-25T12:30:51;5.78;;;1.50;;
66870;SDS011;53780;44.998;9.926;2023-04-25T12:33:56;4.53;;;1.67;;
66870;SDS011;53780;44.998;9.926;2023-04-25T12:37:00;4.97;;;1.53;;
66870;SDS011;53780;44.998;9.926;2023-04-25T12:40:04;7.00;;;1.52;;
66870;SDS011;53780;44.998;9.926;2023-04-25T12:43:09;4.70;;;1.48;;
66870;SDS011;53780;44.998;9.926;2023-04-25T12:46:13;5.53;;;1.55;;
66870;SDS011;53780;44.998;9.926;2023-04-25T12:49:17;4.93;;;1.90;;
66870;SDS011;53780;44.998;9.926;2023-04-25T12:52:21;7.00;;;1.90;;
66870;SDS011;53780;44.998;9.926;2023-04-25T12:55:25;6.03;;;1.60;;
66870;SDS011;53780;44.998;9.926;2023-04-25T12:58:29;6.68;;;1.42;;
66870;SDS011;53780;44.998;9.926;2023-04-25T13:01:33;6.35;;;1.90;;
66870;SDS011;53780;44.998;9.926;2023-04-25T13:04:37;5.35;;;1.90;;
66870;SDS011;53780;44.998;9.926;2023-04-25T13:07:41;6.90;;;1.80;;
66870;SDS011;53780;44.998;9.926;2023-04-25T13:10:47;6.60;;;1.88;;
66870;SDS011;53780;44.998;9.926;2023-04-25T13:13:51;5.15;;;1.73;;
66870;SDS011;53780;44.998;9.926;2023-04-25T13:16:55;5.97;;;1.70;;
66870;SDS011;53780;44.998;9.926;2023-04-25T13:19:59;5.65;;;1.88;;
66870;SDS011;53780;44.998;9.926;2023-04-25T13:23:03;5.53;;;1.77;;
66870;SDS011;53780;44.998;9.926;2023-04-25T13:26:06;4.28;;;1.90;;
66870;SDS011;53780;44.998;9.926;2023-04-25T13:29:10;6.88;;;2.20;;
66870;SDS011;53780;44.998;9.926;2023-04-25T13:32:14;4.05;;;1.60;;
66870;SDS011;53780;44.998;9.926;2023-04-25T13:35:18;4.60;;;1.80;;
66870;SDS011;53780;44.998;9.926;2023-04-25T13:38:22;5.83;;;1.63;;
66870;SDS011;53780;44.998;9.926;2023-04-25T13:41:27;3.83;;;1.55;;
66870;SDS011;53780;44.998;9.926;2023-04-25T13:44:31;7.35;;;2.30;;
66870;SDS011;53780;44.998;9.926;2023-04-25T13:47:34;6.93;;;1.80;;
66870;SDS011;53780;44.998;9.926;2023-04-25T13:50:38;5.97;;;1.88;;
66870;SDS011;53780;44.998;9.926;2023-04-25T13:53:42;4.17;;;1.80;;
66870;SDS011;53780;44.998;9.926;2023-04-25T13:56:45;4.60;;;1.80;;
66870;SDS011;53780;44.998;9.926;2023-04-25T13:59:50;4.20;;;1.73;;
66870;SDS011;53780;44.998;9.926;2023-04-25T14:02:54;4.38;;;1.42;;
66870;SDS011;53780;44.998;9.926;2023-04-25T14:05:58;5.75;;;1.55;;
66870;SDS011;53780;44.998;9.926;2023-04-25T14:09:02;7.13;;;1.40;;
66870;SDS011;53780;44.998;9.926;2023-04-25T14:12:07;4.25;;;1.60;;
66870;SDS011;53780;44.998;9.926;2023-04-25T14:15:11;4.78;;;1.23;;
66870;SDS011;53780;44.998;9.926;2023-04-25T14:18:15;5.47;;;1.33;;
66870;SDS011;53780;44.998;9.926;2023-04-25T14:21:19;4.88;;;1.20;;
66870;SDS011;53780;44.998;9.926;2023-04-25T14:24:24;3.80;;;1.20;;
66870;SDS011;53780;44.998;9.926;2023-04-25T14:27:28;3.83;;;1.30;;
66870;SDS011;53780;44.998;9.926;2023-04-25T14:30:32;5.38;;;1.52;;
66870;SDS011;53780;44.998;9.926;2023-04-25T14:33:36;4.53;;;1.40;;
66870;SDS011;53780;44.998;9.926;2023-04-25T14:36:43;4.22;;;1.15;;
66870;SDS011;53780;44.998;9.926;2023-04-25T14:39:47;4.90;;;1.03;;
66870;SDS011;53780;44.998;9.926;2023-04-25T14:42:51;4.72;;;1.30;;
66870;SDS011;53780;44.998;9.926;2023-04-25T14:45:55;5.55;;;1.30;;
66870;SDS011;53780;44.998;9.926;2023-04-25T14:48:59;5.53;;;0.57;;
66870;SDS011;53780;44.998;9.926;2023-04-25T14:52:03;3.15;;;0.35;;
66870;SDS011;53780;44.998;9.926;2023-04-25T14:55:07;3.93;;;0.40;;
66870;SDS011;53780;44.998;9.926;2023-04-25T14:58:11;2.40;;;0.30;;
66870;SDS011;53780;44.998;9.926;2023-04-25T15:01:16;4.30;;;0.50;;
66870;SDS011;53780;44.998;9.926;2023-04-25T15:04:19;2.40;;;0.50;;
66870;SDS011;53780;44.998;9.926;2023-04-25T15:07:24;6.78;;;0.80;;
66870;SDS011;53780;44.998;9.926;2023-04-25T15:10:28;3.50;;;0.70;;
66870;SDS011;53780;44.998;9.926;2023-04-25T15:13:32;3.60;;;0.40;;
66870;SDS011;53780;44.998;9.926;2023-04-25T15:16:35;7.22;;;0.52;;
66870;SDS011;53780;44.998;9.926;2023-04-25T15:19:40;4.78;;;0.43;;
66870;SDS011;53780;44.998;9.926;2023-04-25T15:22:44;4.05;;;0.90;;
66870;SDS011;53780;44.998;9.926;2023-04-25T15:25:52;2.00;;;0.40;;
66870;SDS011;53780;44.998;9.926;2023-04-25T15:28:56;4.95;;;0.85;;
66870;SDS011;53780;44.998;9.926;2023-04-25T15:32:00;4.57;;;1.27;;
66870;SDS011;53780;44.998;9.926;2023-04-25T15:35:04;7.90;;;1.55;;
66870;SDS011;53780;44.998;9.926;2023-04-25T15:38:09;5.22;;;1.50;;
66870;SDS011;53780;44.998;9.926;2023-04-25T15:41:14;4.20;;;1.50;;
66870;SDS011;53780;44.998;9.926;2023-04-25T15:44:18;5.38;;;0.82;;
66870;SDS011;53780;44.998;9.926;2023-04-25T15:47:22;3.70;;;0.85;;
66870;SDS011;53780;44.998;9.926;2023-04-25T15:50:26;2.83;;;0.60;;
66870;SDS011;53780;44.998;9.926;2023-04-25T15:53:31;4.90;;;0.77;;
66870;SDS011;53780;44.998;9.926;2023-04-25T15:56:34;3.00;;;0.60;;
66870;SDS011;53780;44.998;9.926;2023-04-25T15:59:38;2.40;;;0.60;;
66870;SDS011;53780;44.998;9.926;2023-04-25T16:02:43;2.40;;;0.30;;
66870;SDS011;53780;44.998;9.926;2023-04-25T16:05:48;2.60;;;0.40;;
66870;SDS011;53780;44.998;9.926;2023-04-25T16:08:52;1.90;;;0.40;;
66870;SDS011;53780;44.998;9.926;2023-04-25T16:11:57;2.10;;;0.30;;
66870;SDS011;53780;44.998;9.926;2023-04-25T16:15:01;4.38;;;0.50;;
66870;SDS011;53780;44.998;9.926;2023-04-25T16:18:06;3.72;;;0.40;;
66870;SDS011;53780;44.998;9.926;2023-04-25T16:21:10;3.38;;;0.35;;
66870;SDS011;53780;44.998;9.926;2023-04-25T16:24:18;2.65;;;0.35;;
66870;SDS011;53780;44.998;9.926;2023-04-25T16:27:22;1.97;;;0.30;;
66870;SDS011;53780;44.998;9.926;2023-04-25T16:30:26;4.90;;;0.20;;
66870;SDS011;53780;44.998;9.926;2023-04-25T16:33:30;1.38;;;0.20;;
66870;SDS011;53780;44.998;9.926;2023-04-25T16:36:34;1.40;;;0.20;;
66870;SDS011;53780;44.998;9.926;2023-04-25T16:39:38;2.15;;;0.20;;
66870;SDS011;53780;44.998;9.926;2023-04-25T16:42:42;1.93;;;0.30;;
66870;SDS011;53780;44.998;9.926;2023-04-25T16:45:46;2.33;;;0.22;;
66870;SDS011;53780;44.998;9.926;2023-04-25T16:48:50;1.60;;;0.20;;
66870;SDS011;53780;44.998;9.926;2023-04-25T16:51:54;2.45;;;0.40;;
66870;SDS011;53780;44.998;9.926;2023-04-25T16:54:58;2.00;;;0.40;;
66870;SDS011;53780;44.998;9.926;2023-04-25T16:58:03;3.37;;;0.40;;
66870;SDS011;53780;44.998;9.926;2023-04-25T17:01:07;2.22;;;0.32;;
66870;SDS011;53780;44.998;9.926;2023-04-25T17:04:11;3.80;;;0.40;;
66870;SDS011;53780;44.998;9.926;2023-04-25T17:07:15;2.00;;;0.40;;
66870;SDS011;53780;44.998;9.926;2023-04-25T17:10:20;4.53;;;0.40;;
66870;SDS011;53780;44.998;9.926;2023-04-25T17:13:24;3.27;;;0.30;;
66870;SDS011;53780;44.998;9.926;2023-04-25T17:16:34;2.15;;;0.40;;
66870;SDS011;53780;44.998;9.926;2023-04-25T17:19:39;2.92;;;0.50;;
66870;SDS011;53780;44.998;9.926;2023-04-25T17:22:43;8.35;;;0.60;;
66870;SDS011;53780;44.998;9.926;2023-04-25T17:25:47;4.18;;;0.63;;
66870;SDS011;53780;44.998;9.926;2023-04-25T17:28:54;2.30;;;0.40;;
66870;SDS011;53780;44.998;9.926;2023-04-25T17:31:58;6.45;;;0.60;;
66870;SDS011;53780;44.998;9.926;2023-04-25T17:35:02;2.65;;;0.50;;
66870;SDS011;53780;44.998;9.926;2023-04-25T17:38:07;2.55;;;0.47;;
66870;SDS011;53780;44.998;9.926;2023-04-25T17:41:11;4.53;;;0.60;;
66870;SDS011;53780;44.998;9.926;2023-04-25T17:44:17;3.93;;;0.60;;
66870;SDS011;53780;44.998;9.926;2023-04-25T17:47:21;3.25;;;0.55;;
66870;SDS011;53780;44.998;9.926;2023-04-25T17:50:25;3.65;;;0.70;;
66870;SDS011;53780;44.998;9.926;2023-04-25T17:53:29;3.67;;;0.60;;
66870;SDS011;53780;44.998;9.926;2023-04-25T17:56:36;3.65;;;0.80;;
66870;SDS011;53780;44.998;9.926;2023-04-25T17:59:40;3.73;;;0.70;;
66870;SDS011;53780;44.998;9.926;2023-04-25T18:02:45;6.80;;;0.80;;
66870;SDS011;53780;44.998;9.926;2023-04-25T18:05:51;4.20;;;1.00;;
66870;SDS011;53780;44.998;9.926;2023-04-25T18:08:58;2.47;;;0.60;;
66870;SDS011;53780;44.998;9.926;2023-04-25T18:12:02;3.72;;;0.60;;
66870;SDS011;53780;44.998;9.926;2023-04-25T18:15:07;3.17;;;0.70;;
66870;SDS011;53780;44.998;9.926;2023-04-25T18:18:11;3.85;;;0.70;;
66870;SDS011;53780;44.998;9.926;2023-04-25T18:21:22;5.55;;;0.98;;
66870;SDS011;53780;44.998;9.926;2023-04-25T18:24:27;3.15;;;0.65;;
66870;SDS011;53780;44.998;9.926;2023-04-25T18:27:30;3.10;;;0.70;;
66870;SDS011;53780;44.998;9.926;2023-04-25T18:30:35;3.33;;;0.77;;
66870;SDS011;53780;44.998;9.926;2023-04-25T18:33:40;3.00;;;0.68;;
66870;SDS011;53780;44.998;9.926;2023-04-25T18:36:44;2.85;;;0.75;;
66870;SDS011;53780;44.998;9.926;2023-04-25T18:39:48;3.97;;;0.88;;
66870;SDS011;53780;44.998;9.926;2023-04-25T18:42:52;2.50;;;0.77;;
66870;SDS011;53780;44.998;9.926;2023-04-25T18:45:56;4.37;;;0.70;;
66870;SDS011;53780;44.998;9.926;2023-04-25T18:49:00;5.07;;;0.85;;
66870;SDS011;53780;44.998;9.926;2023-04-25T18:52:05;3.22;;;0.93;;
66870;SDS011;53780;44.998;9.926;2023-04-25T18:55:12;3.90;;;0.98;;